createdAt,value
2022-10-05T00:00:04.323Z,48.37
2022-10-05T00:02:32.258Z,48.68
2022-10-05T00:04:59.384Z,48.39
2022-10-05T00:07:26.097Z,48.18
2022-10-05T00:09:56.373Z,48.42
2022-10-05T00:12:24.295Z,48.31
2022-10-05T00:14:55.813Z,48.18
2022-10-05T00:17:25.418Z,48.52
2022-10-05T00:19:53.947Z,48.61
2022-10-05T00:22:32.326Z,48.71
2022-10-05T00:25:01.874Z,48.63
2022-10-05T00:27:39.121Z,48.50
2022-10-05T00:30:19.357Z,48.03
2022-10-05T00:32:46.554Z,48.19
2022-10-05T00:35:14.666Z,48.10
2022-10-05T00:37:41.748Z,48.11
2022-10-05T00:40:28.851Z,48.59
2022-10-05T00:43:25.641Z,48.05
2022-10-05T00:46:02.856Z,48.21
2022-10-05T00:48:46.153Z,48.39
2022-10-05T00:51:18.478Z,48.68
2022-10-05T00:53:56.616Z,48.00
2022-10-05T00:56:35.205Z,48.03
2022-10-05T00:59:29.578Z,48.68
2022-10-05T01:02:11.374Z,48.57
2022-10-05T01:04:56.354Z,48.66
2022-10-05T01:07:23.438Z,48.70
2022-10-05T01:09:52.591Z,48.29
2022-10-05T01:12:37.402Z,48.72
2022-10-05T01:15:30.958Z,47.91
2022-10-05T01:18:07.090Z,48.48
2022-10-05T01:20:48.785Z,47.66
2022-10-05T01:23:33.472Z,48.59
2022-10-05T01:26:09.045Z,47.75
2022-10-05T01:28:47.331Z,48.26
2022-10-05T01:31:21.135Z,48.16
2022-10-05T01:34:11.187Z,48.38
2022-10-05T01:36:51.262Z,48.67
2022-10-05T01:39:42.706Z,47.82
2022-10-05T01:42:18.184Z,48.47
2022-10-05T01:45:09.616Z,47.88
2022-10-05T01:47:49.742Z,47.95
2022-10-05T01:50:53.370Z,48.42
2022-10-05T01:53:25.727Z,48.55
2022-10-05T01:55:56.441Z,48.21
2022-10-05T01:58:33.320Z,48.11
2022-10-05T02:01:36.257Z,48.09
2022-10-05T02:04:42.679Z,47.82
2022-10-05T02:07:14.654Z,47.78
2022-10-05T02:09:51.999Z,48.38
2022-10-05T02:12:23.659Z,48.52
2022-10-05T02:14:55.420Z,48.38
2022-10-05T02:17:32.371Z,48.62
2022-10-05T02:20:11.761Z,48.11
2022-10-05T02:22:46.745Z,48.29
2022-10-05T02:25:20.349Z,48.36
2022-10-05T02:28:02.441Z,48.40
2022-10-05T02:30:31.675Z,48.25
2022-10-05T02:33:13.216Z,48.22
2022-10-05T02:35:39.793Z,47.94
2022-10-05T02:38:06.286Z,47.78
2022-10-05T02:40:40.498Z,48.59
2022-10-05T02:43:49.227Z,47.97
2022-10-05T02:46:32.390Z,48.11
2022-10-05T02:49:20.567Z,48.56
2022-10-05T02:52:05.303Z,48.01
2022-10-05T02:54:51.397Z,48.21
2022-10-05T02:57:58.065Z,47.95
2022-10-05T03:00:32.258Z,48.63
2022-10-05T03:03:03.467Z,48.61
2022-10-05T03:05:52.542Z,48.30
2022-10-05T03:08:39.919Z,48.07
2022-10-05T03:11:14.831Z,47.68
2022-10-05T03:13:50.035Z,47.83
2022-10-05T03:16:17.141Z,47.84
2022-10-05T03:19:17.746Z,48.55
2022-10-05T03:21:50.392Z,48.07
2022-10-05T03:24:35.452Z,48.33
2022-10-05T03:27:04.969Z,48.50
2022-10-05T03:29:49.429Z,48.11
2022-10-05T03:32:24.934Z,47.99
2022-10-05T03:35:10.609Z,47.65
2022-10-05T03:38:00.340Z,47.72
2022-10-05T03:40:35.069Z,48.49
2022-10-05T03:43:33.686Z,48.40
2022-10-05T03:46:13.828Z,47.99
2022-10-05T03:48:48.805Z,47.87
2022-10-05T03:51:18.054Z,47.66
2022-10-05T03:53:50.087Z,48.36
2022-10-05T03:56:25.169Z,48.44
2022-10-05T03:59:05.974Z,47.97
2022-10-05T04:01:56.830Z,47.95
2022-10-05T04:04:30.442Z,48.53
2022-10-05T04:06:58.095Z,48.14
2022-10-05T04:09:34.148Z,48.72
2022-10-05T04:12:23.279Z,48.76
2022-10-05T04:14:58.160Z,48.65
2022-10-05T04:17:42.543Z,48.55
2022-10-05T04:20:19.800Z,48.16
2022-10-05T04:23:12.056Z,48.67
2022-10-05T04:25:53.924Z,48.14
2022-10-05T04:28:38.243Z,48.09
2022-10-05T04:31:10.104Z,48.85
2022-10-05T04:33:36.705Z,47.95
2022-10-05T04:36:22.193Z,48.40
2022-10-05T04:39:34.601Z,47.92
2022-10-05T04:42:37.101Z,48.18
2022-10-05T04:45:28.456Z,48.87
2022-10-05T04:48:17.535Z,48.10
2022-10-05T04:51:15.961Z,48.68
2022-10-05T04:53:58.798Z,48.79
2022-10-05T04:56:45.193Z,48.65
2022-10-05T04:59:38.863Z,48.17
2022-10-05T05:02:28.577Z,48.85
2022-10-05T05:05:02.330Z,48.53
2022-10-05T05:07:55.032Z,48.22
2022-10-05T05:10:43.303Z,48.93
2022-10-05T05:13:38.739Z,48.78
2022-10-05T05:16:12.816Z,48.47
2022-10-05T05:19:10.558Z,48.27
2022-10-05T05:22:07.716Z,49.20
2022-10-05T05:24:48.677Z,48.71
2022-10-05T05:27:50.066Z,48.88
2022-10-05T05:30:49.571Z,48.93
2022-10-05T05:33:29.052Z,48.88
2022-10-05T05:36:23.516Z,48.56
2022-10-05T05:39:16.799Z,48.65
2022-10-05T05:42:20.646Z,48.79
2022-10-05T05:44:53.755Z,48.78
2022-10-05T05:47:52.089Z,48.15
2022-10-05T05:50:48.110Z,48.49
2022-10-05T05:53:20.742Z,48.06
2022-10-05T05:55:53.820Z,47.95
2022-10-05T05:58:27.392Z,48.06
2022-10-05T06:00:56.629Z,48.56
2022-10-05T06:03:30.267Z,48.01
2022-10-05T06:06:01.846Z,47.75
2022-10-05T06:08:47.955Z,48.55
2022-10-05T06:11:23.108Z,48.01
2022-10-05T06:13:50.368Z,48.30
2022-10-05T06:16:35.058Z,48.01
2022-10-05T06:19:11.386Z,47.93
2022-10-05T06:22:14.954Z,48.31
2022-10-05T06:25:13.902Z,47.98
2022-10-05T06:28:16.330Z,48.23
2022-10-05T06:31:18.013Z,47.36
2022-10-05T06:33:53.850Z,47.55
2022-10-05T06:36:32.453Z,47.39
2022-10-05T06:39:29.508Z,47.78
2022-10-05T06:42:27.393Z,47.54
2022-10-05T06:45:06.126Z,47.75
2022-10-05T06:47:37.926Z,47.44
2022-10-05T06:50:41.466Z,47.77
2022-10-05T06:53:20.120Z,47.34
2022-10-05T06:56:10.196Z,47.50
2022-10-05T06:59:03.870Z,47.13
2022-10-05T07:01:58.433Z,47.07
2022-10-05T07:04:27.742Z,47.19
2022-10-05T07:07:06.820Z,47.39
2022-10-05T07:09:58.279Z,47.02
2022-10-05T07:12:30.974Z,47.18
2022-10-05T07:15:02.255Z,46.86
2022-10-05T07:17:53.123Z,47.04
2022-10-05T07:20:48.920Z,47.18
2022-10-05T07:23:46.331Z,47.02
2022-10-05T07:26:39.722Z,47.58
2022-10-05T07:29:42.294Z,47.44
2022-10-05T07:32:39.781Z,47.11
2022-10-05T07:35:36.430Z,47.15
2022-10-05T07:38:33.011Z,47.60
2022-10-05T07:41:09.098Z,47.06
2022-10-05T07:43:57.885Z,47.14
2022-10-05T07:46:43.814Z,47.32
2022-10-05T07:49:47.406Z,46.69
2022-10-05T07:52:24.796Z,46.74
2022-10-05T07:55:22.761Z,46.35
2022-10-05T07:58:07.788Z,46.37
2022-10-05T08:00:52.232Z,46.77
2022-10-05T08:03:41.978Z,46.62
2022-10-05T08:06:15.473Z,46.49
2022-10-05T08:08:50.614Z,46.30
2022-10-05T08:11:22.929Z,45.63
2022-10-05T08:13:58.587Z,45.55
2022-10-05T08:16:31.462Z,45.23
2022-10-05T08:19:17.478Z,44.99
2022-10-05T08:21:55.853Z,44.28
2022-10-05T08:24:43.798Z,44.13
2022-10-05T08:27:14.879Z,43.60
2022-10-05T08:29:55.941Z,43.69
2022-10-05T08:32:30.526Z,44.82
2022-10-05T08:35:50.937Z,44.84
2022-10-05T08:38:23.555Z,45.33
2022-10-05T08:41:27.310Z,45.71
2022-10-05T08:43:59.925Z,45.71
2022-10-05T08:46:35.578Z,45.52
2022-10-05T08:49:11.150Z,45.69
2022-10-05T08:52:01.927Z,45.27
2022-10-05T08:54:52.642Z,46.13
2022-10-05T08:57:54.748Z,46.41
2022-10-05T09:00:23.484Z,45.54
2022-10-05T09:03:04.779Z,44.67
2022-10-05T09:06:01.077Z,43.99
2022-10-05T09:08:59.179Z,44.17
2022-10-05T09:11:41.408Z,43.99
2022-10-05T09:14:34.358Z,43.79
2022-10-05T09:17:39.102Z,43.23
2022-10-05T09:20:23.903Z,41.49
2022-10-05T09:23:13.815Z,40.56
2022-10-05T09:25:52.053Z,39.89
2022-10-05T09:28:44.537Z,37.94
2022-10-05T09:31:51.544Z,35.43
2022-10-05T09:34:58.962Z,34.10
2022-10-05T09:37:56.319Z,32.49
2022-10-05T09:40:25.978Z,30.80
2022-10-05T09:43:21.554Z,32.68
2022-10-05T09:46:03.100Z,33.51
2022-10-05T09:48:47.851Z,34.53
2022-10-05T09:51:42.450Z,34.92
2022-10-05T09:54:24.123Z,36.55
2022-10-05T09:56:51.790Z,37.24
2022-10-05T09:59:24.051Z,39.04
2022-10-05T10:02:05.013Z,37.63
2022-10-05T10:05:01.676Z,39.18
2022-10-05T10:08:07.143Z,40.57
2022-10-05T10:10:48.140Z,41.24
2022-10-05T10:13:17.590Z,42.14
2022-10-05T10:15:48.401Z,42.69
2022-10-05T10:18:24.138Z,43.30
2022-10-05T10:21:07.815Z,43.29
2022-10-05T10:24:03.663Z,43.97
2022-10-05T10:27:07.593Z,43.83
2022-10-05T10:29:39.945Z,43.84
2022-10-05T10:32:35.370Z,44.30
2022-10-05T10:35:25.187Z,44.11
2022-10-05T10:38:23.749Z,43.68
2022-10-05T10:41:05.154Z,43.69
2022-10-05T10:43:52.937Z,43.32
2022-10-05T10:46:34.732Z,43.32
2022-10-05T10:49:16.856Z,43.08
2022-10-05T10:51:43.772Z,43.16
2022-10-05T10:54:39.627Z,43.51
2022-10-05T10:57:17.055Z,43.80
2022-10-05T11:00:28.236Z,43.97
2022-10-05T11:03:28.217Z,44.31
2022-10-05T11:06:21.256Z,44.91
2022-10-05T11:09:09.698Z,45.34
2022-10-05T11:11:56.142Z,45.05
2022-10-05T11:14:41.010Z,44.72
2022-10-05T11:17:15.586Z,44.85
2022-10-05T11:20:05.212Z,44.91
2022-10-05T11:22:34.694Z,45.23
2022-10-05T11:25:22.661Z,44.78
2022-10-05T11:28:08.014Z,45.12
2022-10-05T11:31:05.468Z,44.82
2022-10-05T11:33:59.617Z,44.71
2022-10-05T11:36:34.958Z,44.77
2022-10-05T11:39:15.997Z,44.47
2022-10-05T11:42:23.473Z,44.21
2022-10-05T11:45:27.905Z,44.77
2022-10-05T11:48:33.832Z,44.60
2022-10-05T11:51:37.989Z,44.54
2022-10-05T11:54:35.144Z,43.70
2022-10-05T11:57:19.164Z,43.25
2022-10-05T12:00:18.025Z,41.60
2022-10-05T12:03:12.404Z,42.40
2022-10-05T12:06:21.997Z,42.17
2022-10-05T12:09:23.336Z,38.49
2022-10-05T12:11:57.641Z,35.86
2022-10-05T12:14:33.645Z,35.98
2022-10-05T12:17:03.108Z,34.99
2022-10-05T12:19:42.116Z,35.00
2022-10-05T12:22:31.497Z,35.37
2022-10-05T12:25:04.899Z,35.96
2022-10-05T12:27:38.320Z,36.82
2022-10-05T12:30:34.753Z,37.34
2022-10-05T12:33:16.505Z,38.36
2022-10-05T12:35:52.818Z,40.17
2022-10-05T12:38:44.770Z,40.01
2022-10-05T12:41:40.417Z,40.80
2022-10-05T12:44:18.757Z,42.14
2022-10-05T12:47:02.088Z,42.44
2022-10-05T12:49:44.107Z,42.54
2022-10-05T12:52:28.447Z,43.36
2022-10-05T12:55:09.926Z,43.85
2022-10-05T12:58:05.292Z,43.69
2022-10-05T13:00:37.255Z,44.44
2022-10-05T13:03:59.214Z,44.46
2022-10-05T13:06:44.612Z,43.90
2022-10-05T13:09:36.642Z,43.93
2022-10-05T13:12:19.113Z,44.02
2022-10-05T13:15:23.993Z,42.95
2022-10-05T13:17:59.498Z,41.74
2022-10-05T13:20:35.357Z,41.01
2022-10-05T13:23:13.665Z,39.52
2022-10-05T13:25:55.250Z,39.78
2022-10-05T13:28:37.467Z,38.85
2022-10-05T13:31:15.523Z,39.21
2022-10-05T13:33:48.874Z,38.95
2022-10-05T13:36:31.320Z,38.66
2022-10-05T13:39:15.524Z,38.77
2022-10-05T13:42:03.588Z,38.62
2022-10-05T13:44:32.947Z,38.35
2022-10-05T13:47:06.740Z,38.28
2022-10-05T13:50:02.352Z,38.40
2022-10-05T13:52:38.373Z,38.90
2022-10-05T13:55:22.809Z,38.70
2022-10-05T13:58:15.140Z,38.84
2022-10-05T14:00:57.883Z,38.20
2022-10-05T14:03:27.430Z,38.29
2022-10-05T14:05:59.932Z,38.35
2022-10-05T14:08:34.062Z,38.08
2022-10-05T14:11:40.229Z,38.04
2022-10-05T14:14:10.198Z,38.16
2022-10-05T14:17:00.559Z,38.79
2022-10-05T14:19:32.260Z,38.13
2022-10-05T14:22:01.954Z,38.43
2022-10-05T14:24:44.732Z,38.43
2022-10-05T14:27:25.896Z,38.26
2022-10-05T14:30:02.206Z,37.91
2022-10-05T14:32:43.370Z,38.46
2022-10-05T14:35:16.581Z,38.48
2022-10-05T14:38:00.680Z,38.59
2022-10-05T14:40:34.151Z,39.01
2022-10-05T14:43:21.035Z,39.69
2022-10-05T14:46:24.981Z,39.91
2022-10-05T14:49:27.384Z,40.58
2022-10-05T14:51:56.723Z,41.14
2022-10-05T14:54:34.047Z,41.67
2022-10-05T14:57:23.223Z,42.13
2022-10-05T15:00:11.759Z,42.21
2022-10-05T15:02:56.246Z,42.90
2022-10-05T15:05:24.764Z,43.02
2022-10-05T15:07:57.197Z,42.82
2022-10-05T15:10:29.474Z,42.67
2022-10-05T15:13:08.037Z,42.74
2022-10-05T15:15:59.982Z,43.14
2022-10-05T15:18:45.003Z,43.36
2022-10-05T15:21:42.313Z,43.55
2022-10-05T15:24:17.143Z,44.12
2022-10-05T15:26:50.550Z,44.82
2022-10-05T15:29:24.178Z,44.83
2022-10-05T15:32:15.406Z,44.92
2022-10-05T15:35:00.239Z,45.11
2022-10-05T15:37:47.640Z,45.02
2022-10-05T15:40:30.409Z,45.16
2022-10-05T15:43:03.407Z,44.99
2022-10-05T15:45:37.509Z,45.41
2022-10-05T15:48:20.042Z,45.12
2022-10-05T15:51:00.264Z,45.23
2022-10-05T15:54:24.484Z,45.26
2022-10-05T15:56:59.347Z,45.51
2022-10-05T15:59:33.802Z,45.69
2022-10-05T16:02:07.098Z,45.76
2022-10-05T16:05:04.461Z,45.37
2022-10-05T16:08:02.018Z,45.54
2022-10-05T16:10:33.748Z,46.22
2022-10-05T16:13:11.789Z,46.02
2022-10-05T16:15:46.401Z,45.92
2022-10-05T16:18:30.248Z,46.47
2022-10-05T16:21:15.154Z,46.27
2022-10-05T16:23:53.936Z,45.89
2022-10-05T16:26:23.042Z,46.52
2022-10-05T16:29:02.615Z,45.90
2022-10-05T16:31:54.484Z,46.82
2022-10-05T16:34:31.742Z,46.55
2022-10-05T16:37:16.709Z,46.93
2022-10-05T16:39:46.275Z,46.67
2022-10-05T16:42:47.753Z,46.32
2022-10-05T16:45:22.828Z,46.65
2022-10-05T16:48:19.778Z,47.28
2022-10-05T16:51:11.166Z,46.80
2022-10-05T16:53:42.333Z,46.97
2022-10-05T16:56:25.306Z,47.21
2022-10-05T16:59:19.558Z,47.32
2022-10-05T17:02:05.000Z,46.70
2022-10-05T17:04:52.307Z,47.26
2022-10-05T17:07:21.642Z,46.76
2022-10-05T17:09:57.339Z,46.98
2022-10-05T17:12:32.797Z,47.64
2022-10-05T17:15:29.147Z,47.10
2022-10-05T17:18:01.776Z,46.91
2022-10-05T17:20:55.461Z,47.00
2022-10-05T17:23:32.104Z,47.21
2022-10-05T17:26:16.273Z,47.03
2022-10-05T17:28:51.851Z,46.45
2022-10-05T17:31:21.716Z,46.67
2022-10-05T17:34:00.201Z,46.38
2022-10-05T17:36:50.443Z,46.58
2022-10-05T17:39:22.490Z,47.07
2022-10-05T17:41:49.587Z,46.89
2022-10-05T17:44:24.430Z,46.81
2022-10-05T17:47:03.902Z,46.69
2022-10-05T17:50:26.768Z,46.67
2022-10-05T17:53:38.480Z,46.39
2022-10-05T17:56:05.606Z,46.49
2022-10-05T17:58:32.064Z,46.67
2022-10-05T18:00:58.502Z,46.56
2022-10-05T18:03:35.821Z,46.65
2022-10-05T18:06:22.003Z,46.96
2022-10-05T18:08:48.565Z,46.71
2022-10-05T18:11:36.758Z,46.88
2022-10-05T18:14:49.522Z,46.52
2022-10-05T18:17:50.714Z,47.21
2022-10-05T18:20:26.651Z,46.79
2022-10-05T18:23:09.393Z,46.67
2022-10-05T18:26:04.627Z,47.00
2022-10-05T18:29:13.971Z,46.96
2022-10-05T18:32:00.266Z,47.42
2022-10-05T18:34:51.325Z,47.20
2022-10-05T18:37:36.602Z,47.05
2022-10-05T18:40:14.789Z,47.51
2022-10-05T18:43:04.042Z,46.91
2022-10-05T18:45:45.513Z,46.81
2022-10-05T18:48:35.765Z,47.24
2022-10-05T18:51:37.701Z,47.44
2022-10-05T18:54:39.485Z,46.69
2022-10-05T18:57:39.916Z,46.58
2022-10-05T19:00:18.123Z,46.48
2022-10-05T19:03:03.670Z,46.85
2022-10-05T19:05:46.893Z,47.04
2022-10-05T19:08:26.520Z,46.67
2022-10-05T19:11:00.809Z,46.68
2022-10-05T19:14:05.601Z,46.70
2022-10-05T19:16:35.070Z,46.51
2022-10-05T19:19:33.150Z,46.69
2022-10-05T19:22:33.104Z,46.93
2022-10-05T19:25:05.483Z,46.68
2022-10-05T19:28:02.507Z,46.27
2022-10-05T19:30:45.527Z,46.79
2022-10-05T19:33:42.819Z,46.88
2022-10-05T19:36:36.002Z,46.45
2022-10-05T19:39:43.941Z,47.17
2022-10-05T19:42:36.741Z,47.19
2022-10-05T19:45:16.093Z,46.68
2022-10-05T19:48:15.291Z,47.15
2022-10-05T19:50:54.729Z,46.68
2022-10-05T19:53:32.723Z,47.28
2022-10-05T19:56:22.445Z,46.91
2022-10-05T19:58:50.236Z,46.79
2022-10-05T20:01:25.375Z,47.29
2022-10-05T20:03:53.325Z,46.93
2022-10-05T20:06:21.708Z,46.58
2022-10-05T20:08:52.945Z,46.88
2022-10-05T20:11:27.043Z,47.07
2022-10-05T20:13:53.555Z,46.91
2022-10-05T20:19:49.792Z,47.36
2022-10-05T20:22:28.484Z,47.16
2022-10-05T20:24:57.914Z,47.35
2022-10-05T20:27:39.700Z,47.25
2022-10-05T20:30:07.482Z,47.19
2022-10-05T20:32:34.093Z,47.07
2022-10-05T20:35:00.742Z,46.71
2022-10-05T20:37:27.318Z,46.99
2022-10-05T20:39:53.849Z,47.32
2022-10-05T20:42:23.776Z,47.08
2022-10-05T20:44:55.794Z,47.31
2022-10-05T20:47:23.789Z,47.04
2022-10-05T20:49:50.333Z,47.35
2022-10-05T20:52:16.916Z,47.09
2022-10-05T20:54:43.463Z,47.18
2022-10-05T20:57:10.067Z,46.99
2022-10-05T20:59:37.387Z,46.82
2022-10-05T21:02:04.639Z,46.78
2022-10-05T21:04:40.207Z,47.26
2022-10-05T21:07:07.284Z,46.95
2022-10-05T21:09:33.923Z,46.80
2022-10-05T21:12:00.451Z,46.85
2022-10-05T21:14:30.525Z,46.82
2022-10-05T21:16:57.091Z,46.95
2022-10-05T21:19:23.610Z,46.77
2022-10-05T21:21:50.179Z,46.83
2022-10-05T21:24:17.330Z,46.99
2022-10-05T21:26:44.946Z,46.92
2022-10-05T21:29:13.051Z,47.23
2022-10-05T21:31:40.331Z,47.35
2022-10-05T21:34:07.402Z,47.35
2022-10-05T21:36:34.628Z,47.34
2022-10-05T21:39:01.669Z,47.43
2022-10-05T21:41:28.216Z,47.11
2022-10-05T21:43:54.799Z,47.41
2022-10-05T21:46:26.311Z,46.74
2022-10-05T21:48:54.292Z,47.33
2022-10-05T21:51:24.077Z,47.19
2022-10-05T21:53:57.187Z,47.22
2022-10-05T21:56:29.132Z,46.88
2022-10-05T21:58:55.776Z,47.67
2022-10-05T22:01:23.081Z,47.45
2022-10-05T22:03:49.932Z,47.54
2022-10-05T22:06:16.534Z,47.44
2022-10-05T22:08:43.195Z,47.51
2022-10-05T22:11:15.827Z,47.05
2022-10-05T22:13:53.212Z,47.58
2022-10-05T22:16:23.604Z,47.83
2022-10-05T22:18:50.235Z,47.91
2022-10-05T22:21:17.277Z,47.28
2022-10-05T22:23:45.899Z,47.31
2022-10-05T22:26:16.366Z,47.19
2022-10-05T22:28:44.208Z,47.50
2022-10-05T22:31:12.752Z,47.56
2022-10-05T22:33:40.840Z,47.18
2022-10-05T22:36:08.366Z,47.55
2022-10-05T22:38:34.976Z,47.27
2022-10-05T22:41:01.543Z,47.36
2022-10-05T22:43:28.136Z,47.70
2022-10-05T22:45:56.018Z,47.76
2022-10-05T22:48:22.652Z,47.55
2022-10-05T22:50:49.366Z,47.69
2022-10-05T22:53:15.998Z,47.28
2022-10-05T22:55:42.587Z,47.64
2022-10-05T22:58:09.116Z,47.68
2022-10-05T23:00:57.094Z,47.91
2022-10-05T23:03:22.177Z,48.02
2022-10-05T23:05:56.285Z,47.68
2022-10-05T23:08:22.798Z,47.23
2022-10-05T23:10:49.310Z,47.41
2022-10-05T23:13:15.900Z,47.97
2022-10-05T23:15:42.464Z,47.93
2022-10-05T23:18:08.985Z,48.01
2022-10-05T23:20:35.577Z,47.54
2022-10-05T23:23:02.095Z,47.28
2022-10-05T23:25:28.614Z,47.59
2022-10-05T23:27:55.170Z,47.32
2022-10-05T23:30:21.750Z,47.16
2022-10-05T23:32:48.292Z,47.61
2022-10-05T23:35:14.986Z,47.58
2022-10-05T23:37:43.941Z,47.33
2022-10-05T23:40:13.153Z,47.53
2022-10-05T23:42:40.873Z,47.72
2022-10-05T23:45:09.142Z,47.87
2022-10-05T23:47:35.808Z,48.00
2022-10-05T23:50:03.404Z,47.74
2022-10-05T23:52:29.948Z,47.82
2022-10-05T23:54:56.540Z,47.84
2022-10-05T23:57:23.076Z,47.41
2022-10-05T23:59:52.616Z,47.64
